Time;durP1;ratioP1;P1;durP2;ratioP2;P2;SDS_P1;SDS_P2;PMS_P1;PMS_P2;Temp;Humidity;BMP_temperature;BMP_pressure;BME280_temperature;BME280_humidity;BME280_pressure;Samples;Min_cycle;Max_cycle;Signal;HPM_P1;HPM_P2
2022/03/15 00:01:04;;;;;;;;;6.50;5.00;;;;;13.51;47.59;101970.84;5045417;28;45532;-70
2022/03/15 00:03:30;;;;;;;;;3.00;3.00;;;;;13.44;47.93;101951.81;5040502;28;45533;-70
2022/03/15 00:05:56;;;;;;;;;6.00;5.00;;;;;13.36;47.68;101937.22;5036515;28;45390;-69
2022/03/15 00:08:21;;;;;;;;;9.75;5.00;;;;;13.32;47.51;101926.31;5038226;28;45416;-70
2022/03/15 00:10:48;;;;;;;;;6.75;5.50;;;;;13.50;47.46;101944.88;5047558;28;45688;-71
2022/03/15 00:13:13;;;;;;;;;5.00;3.00;;;;;13.32;47.73;101916.53;5036921;28;45373;-70
2022/03/15 00:15:40;;;;;;;;;6.50;4.00;;;;;13.44;47.43;101924.06;5037750;28;45633;-69
2022/03/15 00:18:06;;;;;;;;;6.50;5.25;;;;;13.60;47.50;101955.94;5036214;28;45440;-69
2022/03/15 00:20:31;;;;;;;;;8.50;7.00;;;;;13.15;47.63;101867.63;5041341;28;45296;-69
2022/03/15 00:22:59;;;;;;;;;9.75;5.75;;;;;13.58;47.62;101951.41;5036085;28;45521;-69
2022/03/15 00:25:24;;;;;;;;;8.75;6.00;;;;;13.60;47.47;101941.63;5053062;28;45430;-70
2022/03/15 00:27:51;;;;;;;;;3.75;3.75;;;;;13.59;47.07;101937.09;5063108;28;45526;-71
2022/03/15 00:30:17;;;;;;;;;9.25;5.25;;;;;13.48;47.80;101926.03;5060475;27;45623;-69
2022/03/15 00:32:43;;;;;;;;;7.25;5.50;;;;;13.63;47.50;101942.63;5042752;28;45354;-70
2022/03/15 00:35:20;;;;;;;;;8.75;6.25;;;;;13.43;48.28;101924.97;5044607;28;45395;-70
2022/03/15 00:37:46;;;;;;;;;8.25;5.00;;;;;13.56;48.14;101947.72;5049083;28;45387;-70
2022/03/15 00:40:13;;;;;;;;;4.25;4.25;;;;;13.52;47.68;101949.41;5058831;28;45430;-70
2022/03/15 00:42:39;;;;;;;;;6.25;4.50;;;;;13.38;47.85;101923.84;5035780;28;45526;-70
2022/03/15 00:45:05;;;;;;;;;7.25;6.00;;;;;13.53;48.06;101943.19;5035507;28;45462;-69
2022/03/15 00:47:31;;;;;;;;;6.75;5.00;;;;;13.44;47.85;101918.72;5034892;28;45959;-70
2022/03/15 00:49:56;;;;;;;;;8.00;4.00;;;;;13.60;47.94;101942.53;5036150;28;45374;-69
2022/03/15 00:52:22;;;;;;;;;6.50;4.75;;;;;13.26;47.62;101878.69;5035161;27;45553;-70
2022/03/15 00:54:47;;;;;;;;;6.50;5.00;;;;;13.59;48.01;101940.69;5034680;28;45392;-70
2022/03/15 00:57:13;;;;;;;;;5.00;5.00;;;;;13.32;47.62;101897.75;5034676;28;45307;-71
2022/03/15 00:59:39;;;;;;;;;5.50;5.50;;;;;13.63;47.23;101936.34;5054741;28;45541;-70
2022/03/15 01:02:05;;;;;;;;;6.25;6.25;;;;;13.50;47.47;101901.91;5066975;28;44950;-70
2022/03/15 01:04:31;;;;;;;;;6.75;5.25;;;;;13.12;48.02;101837.09;5061337;28;45325;-70
2022/03/15 01:06:56;;;;;;;;;4.00;4.00;;;;;13.60;47.66;101922.81;5057649;28;45409;-72
2022/03/15 01:09:22;;;;;;;;;6.00;5.00;;;;;13.51;47.87;101909.09;5063544;28;45231;-69
2022/03/15 01:11:47;;;;;;;;;7.25;7.25;;;;;13.52;48.19;101925.25;5052797;28;44971;-69
2022/03/15 01:14:13;;;;;;;;;5.75;3.50;;;;;13.54;47.54;101930.66;5048774;28;45499;-70
2022/03/15 01:16:38;;;;;;;;;5.00;5.00;;;;;13.34;48.25;101885.28;5046547;28;45468;-69
2022/03/15 01:19:07;;;;;;;;;5.50;3.75;;;;;13.46;48.30;101900.88;5050198;28;45437;-70
2022/03/15 01:21:35;;;;;;;;;8.00;5.75;;;;;13.56;48.12;101913.75;5041345;28;45681;-69
2022/03/15 01:24:00;;;;;;;;;9.00;6.00;;;;;13.55;48.67;101914.59;5048930;28;46104;-70
2022/03/15 01:26:26;;;;;;;;;5.00;4.75;;;;;13.39;48.27;101885.44;5034247;28;45264;-69
2022/03/15 01:28:51;;;;;;;;;8.50;6.50;;;;;13.14;47.76;101841.63;5038667;28;45492;-69
2022/03/15 01:31:17;;;;;;;;;5.50;5.50;;;;;13.55;48.62;101906.56;5036956;28;45414;-70
2022/03/15 01:33:42;;;;;;;;;6.50;5.00;;;;;13.57;48.34;101903.91;5034742;28;45451;-71
2022/03/15 01:36:07;;;;;;;;;4.25;4.25;;;;;13.60;47.72;101898.66;5034810;28;45243;-70
2022/03/15 01:38:34;;;;;;;;;4.00;4.00;;;;;13.63;48.63;101893.38;5044653;28;45720;-69
2022/03/15 01:40:59;;;;;;;;;3.00;3.00;;;;;13.55;48.53;101887.75;5034528;28;45426;-70
2022/03/15 01:43:25;;;;;;;;;7.75;5.00;;;;;13.59;48.78;101896.81;5034281;28;45476;-70
2022/03/15 01:45:50;;;;;;;;;5.25;5.25;;;;;13.50;48.95;101875.06;5057141;28;45120;-70
2022/03/15 01:48:16;;;;;;;;;6.50;4.00;;;;;13.59;48.86;101880.72;5055783;28;45060;-69
2022/03/15 01:50:41;;;;;;;;;6.75;3.75;;;;;13.40;48.59;101852.38;5049530;28;45549;-70
2022/03/15 01:53:07;;;;;;;;;5.00;4.25;;;;;13.43;49.14;101850.69;5049211;28;45181;-68
2022/03/15 01:55:32;;;;;;;;;5.00;4.00;;;;;13.53;48.76;101861.69;5058360;28;45298;-69
2022/03/15 01:57:58;;;;;;;;;5.75;4.00;;;;;13.48;49.06;101853.53;5072050;28;45138;-70
2022/03/15 02:00:23;;;;;;;;;4.75;4.75;;;;;13.57;49.59;101855.59;5053822;28;45003;-69
2022/03/15 02:02:48;;;;;;;;;6.50;6.50;;;;;13.10;49.35;101783.38;5051647;28;45074;-70
2022/03/15 02:05:14;;;;;;;;;3.00;3.00;;;;;13.54;49.61;101847.44;5053807;28;45138;-69
2022/03/15 02:07:39;;;;;;;;;9.25;6.00;;;;;13.29;50.20;101814.41;5049427;28;45315;-69
2022/03/15 02:10:09;;;;;;;;;7.50;5.00;;;;;13.26;50.26;101833.06;5049547;28;45298;-70
2022/03/15 02:12:36;;;;;;;;;7.25;4.75;;;;;13.33;50.43;101843.22;5049156;28;45854;-70
2022/03/15 02:15:03;;;;;;;;;5.00;5.00;;;;;13.47;50.82;101849.00;5067832;28;44873;-70
2022/03/15 02:17:29;;;;;;;;;6.00;5.00;;;;;13.26;50.63;101817.91;5064952;28;45870;-70
2022/03/15 02:19:54;;;;;;;;;6.50;5.50;;;;;13.53;50.63;101848.28;5064775;28;45450;-70
2022/03/15 02:22:20;;;;;;;;;7.00;6.00;;;;;13.43;51.72;101841.75;5069139;28;45586;-71
2022/03/15 02:24:46;;;;;;;;;12.00;5.00;;;;;13.35;51.84;101844.16;5060857;28;45330;-70
2022/03/15 02:27:11;;;;;;;;;7.75;4.00;;;;;13.31;51.72;101822.50;5045816;27;45336;-69
2022/03/15 02:29:37;;;;;;;;;5.25;4.50;;;;;13.36;51.95;101824.50;5040654;28;45781;-70
2022/03/15 02:32:03;;;;;;;;;5.00;4.00;;;;;13.14;53.00;101803.19;5036858;28;45967;-69
2022/03/15 02:34:28;;;;;;;;;6.00;4.00;;;;;13.39;52.74;101823.69;5050754;28;45361;-70
2022/03/15 02:36:54;;;;;;;;;6.75;6.50;;;;;13.22;53.27;101794.50;5046522;28;45366;-70
2022/03/15 02:39:19;;;;;;;;;5.00;5.00;;;;;13.31;53.37;101793.88;5037181;28;45545;-69
2022/03/15 02:41:44;;;;;;;;;8.00;6.00;;;;;13.30;53.67;101800.13;5036729;28;46324;-71
2022/03/15 02:44:11;;;;;;;;;6.50;5.00;;;;;13.36;53.28;101819.13;5049243;28;45379;-70
2022/03/15 02:46:39;;;;;;;;;3.50;3.00;;;;;13.43;53.28;101812.22;5047288;28;45616;-69
2022/03/15 02:49:06;;;;;;;;;5.25;4.00;;;;;13.46;53.45;101814.97;5067135;28;46079;-70
2022/03/15 02:51:31;;;;;;;;;7.00;5.00;;;;;13.31;53.74;101787.59;5061605;28;45595;-70
2022/03/15 02:53:58;;;;;;;;;6.50;5.50;;;;;13.34;54.30;101788.66;5059977;28;45457;-71
2022/03/15 02:56:23;;;;;;;;;4.00;4.00;;;;;13.25;55.14;101793.72;5037421;28;45422;-69
2022/03/15 02:58:49;;;;;;;;;6.50;5.25;;;;;13.17;55.25;101780.03;5037275;28;45565;-70
2022/03/15 03:01:14;;;;;;;;;9.25;5.00;;;;;13.30;55.18;101792.06;5036739;28;46035;-70
2022/03/15 03:03:40;;;;;;;;;6.00;6.00;;;;;13.14;56.24;101760.25;5051619;28;45323;-70
2022/03/15 03:06:05;;;;;;;;;6.25;5.25;;;;;13.31;56.45;101799.25;5053033;28;45230;-69
2022/03/15 03:08:32;;;;;;;;;6.00;5.00;;;;;13.13;56.00;101779.88;5038014;28;45598;-70
2022/03/15 03:10:59;;;;;;;;;8.50;5.50;;;;;13.23;57.00;101800.78;5070344;28;46196;-70
2022/03/15 03:13:27;;;;;;;;;5.75;4.25;;;;;13.26;56.39;101799.13;5071165;28;45209;-69
2022/03/15 03:15:57;;;;;;;;;7.00;7.00;;;;;13.28;56.91;101792.03;5048712;28;45382;-70
2022/03/15 03:18:24;;;;;;;;;4.25;4.25;;;;;13.09;57.86;101763.66;5038619;28;45682;-71
2022/03/15 03:20:50;;;;;;;;;5.50;5.50;;;;;13.10;56.88;101761.91;5052493;28;46693;-70
2022/03/15 03:23:16;;;;;;;;;6.75;6.00;;;;;13.30;57.61;101791.13;5058857;28;45167;-70
2022/03/15 03:25:42;;;;;;;;;8.00;6.50;;;;;12.62;57.68;101679.91;5052637;28;45406;-71
2022/03/15 03:28:08;;;;;;;;;9.25;5.50;;;;;13.18;58.91;101789.91;5051754;28;45110;-71
2022/03/15 03:30:37;;;;;;;;;4.50;4.50;;;;;13.11;59.40;101789.66;5052464;28;46465;-72
2022/03/15 03:33:03;;;;;;;;;11.75;6.00;;;;;13.11;59.32;101781.59;5071821;28;45154;-70
2022/03/15 03:35:30;;;;;;;;;5.00;5.00;;;;;13.01;60.85;101780.38;5062242;28;45140;-70
2022/03/15 03:37:56;;;;;;;;;11.25;7.75;;;;;12.94;61.58;101783.75;5051561;28;45280;-70
2022/03/15 03:40:21;;;;;;;;;6.00;6.00;;;;;12.62;61.43;101743.31;5051601;28;46185;-70
2022/03/15 03:42:47;;;;;;;;;5.25;3.50;;;;;12.84;61.61;101783.41;5056755;28;45393;-70
2022/03/15 03:45:12;;;;;;;;;8.50;4.75;;;;;12.77;62.25;101780.47;5054861;28;45100;-71
2022/03/15 03:47:37;;;;;;;;;6.50;5.50;;;;;12.89;62.32;101781.81;5052131;28;45653;-70
2022/03/15 03:50:04;;;;;;;;;9.75;8.00;;;;;12.73;61.87;101736.56;5050538;28;45726;-70
2022/03/15 03:52:30;;;;;;;;;7.25;5.00;;;;;13.01;62.37;101775.91;5067313;27;45303;-71
2022/03/15 03:54:55;;;;;;;;;6.00;6.00;;;;;13.02;61.56;101774.19;5049847;28;45668;-70
2022/03/15 03:57:20;;;;;;;;;9.00;7.75;;;;;12.73;62.71;101736.56;5050973;28;45202;-71
2022/03/15 03:59:46;;;;;;;;;8.25;7.75;;;;;12.81;64.25;101769.00;5050123;28;44957;-70
2022/03/15 04:02:11;;;;;;;;;6.50;6.50;;;;;12.80;64.47;101776.16;5050461;28;45234;-71
2022/03/15 04:04:37;;;;;;;;;5.75;5.00;;;;;12.53;64.43;101720.69;5055483;28;45134;-71
2022/03/15 04:07:06;;;;;;;;;9.25;7.50;;;;;12.75;64.05;101768.78;5050676;28;45315;-70
2022/03/15 04:09:32;;;;;;;;;8.75;7.75;;;;;12.76;65.17;101763.47;5064497;28;46326;-71
2022/03/15 04:11:57;;;;;;;;;8.25;6.50;;;;;12.69;64.99;101745.38;5066855;28;46515;-70
2022/03/15 04:14:22;;;;;;;;;8.00;8.00;;;;;12.78;65.49;101756.38;5064955;28;46804;-71
2022/03/15 04:16:48;;;;;;;;;11.75;6.75;;;;;12.53;65.34;101707.31;5049880;28;45221;-70
2022/03/15 04:19:13;;;;;;;;;9.25;6.50;;;;;12.68;65.36;101743.53;5042663;28;45266;-71
2022/03/15 04:21:38;;;;;;;;;10.75;9.00;;;;;12.62;65.72;101732.59;5051680;28;45221;-70
2022/03/15 04:24:04;;;;;;;;;7.75;7.75;;;;;12.56;64.88;101706.50;5052440;28;45228;-70
2022/03/15 04:26:30;;;;;;;;;5.00;5.00;;;;;12.79;65.46;101725.13;5039928;28;45342;-70
2022/03/15 04:28:55;;;;;;;;;6.75;6.75;;;;;12.90;66.12;101746.09;5050368;28;45060;-70
2022/03/15 04:31:22;;;;;;;;;8.00;6.00;;;;;12.77;65.89;101737.56;5062765;28;45012;-70
2022/03/15 04:33:47;;;;;;;;;6.50;6.50;;;;;12.85;65.31;101747.72;5054166;28;45511;-70
2022/03/15 04:36:13;;;;;;;;;7.25;6.50;;;;;12.86;65.38;101729.84;5042449;28;45300;-70
2022/03/15 04:38:39;;;;;;;;;8.50;6.00;;;;;12.80;65.38;101735.00;5045230;28;45496;-70
2022/03/15 04:41:05;;;;;;;;;6.25;6.25;;;;;12.90;66.68;101742.47;5035189;28;45480;-70
2022/03/15 04:43:31;;;;;;;;;11.75;9.00;;;;;12.66;65.72;101697.91;5049053;28;45392;-71
2022/03/15 04:45:57;;;;;;;;;8.00;8.00;;;;;12.84;65.93;101719.06;5050145;28;45308;-70
2022/03/15 04:48:23;;;;;;;;;8.00;7.00;;;;;13.06;65.38;101736.75;5047108;28;47632;-70
2022/03/15 04:50:49;;;;;;;;;16.00;9.00;;;;;12.95;66.19;101734.56;5045361;28;45444;-69
2022/03/15 04:53:15;;;;;;;;;8.50;7.00;;;;;13.07;65.07;101743.03;5055533;28;45224;-70
2022/03/15 04:55:41;;;;;;;;;10.75;9.00;;;;;13.12;65.68;101735.16;5049727;28;45027;-70
2022/03/15 04:58:06;;;;;;;;;8.75;7.00;;;;;13.15;65.43;101743.25;5050873;28;45228;-71
2022/03/15 05:00:31;;;;;;;;;8.25;7.00;;;;;12.98;65.77;101699.81;5049983;28;45469;-70
2022/03/15 05:02:57;;;;;;;;;8.00;8.00;;;;;13.02;65.50;101697.28;5066705;28;45375;-71
2022/03/15 05:05:22;;;;;;;;;7.00;7.00;;;;;13.22;65.16;101721.16;5049478;28;45173;-70
2022/03/15 05:07:48;;;;;;;;;9.25;8.00;;;;;13.24;65.21;101731.03;5057214;28;45249;-70
2022/03/15 05:12:57;;;;;;;;;6.25;4.50;;;;;13.34;64.79;101737.66;5073460;27;45039;-70
2022/03/15 05:15:23;;;;;;;;;4.75;4.75;;;;;13.29;64.73;101720.47;5052299;28;45390;-71
2022/03/15 05:17:49;;;;;;;;;6.25;6.25;;;;;13.35;64.55;101726.06;5042314;28;46159;-70
2022/03/15 05:20:14;;;;;;;;;7.75;7.00;;;;;13.37;65.13;101723.44;5034515;28;45479;-71
2022/03/15 05:22:40;;;;;;;;;4.75;4.25;;;;;13.20;65.38;101715.72;5054437;28;45274;-71
2022/03/15 05:25:06;;;;;;;;;6.00;6.00;;;;;13.26;65.64;101732.03;5051590;28;45065;-71
2022/03/15 05:27:33;;;;;;;;;8.25;8.00;;;;;13.20;64.92;101715.72;5050238;28;46101;-72
2022/03/15 05:29:59;;;;;;;;;7.75;7.75;;;;;13.06;65.37;101690.22;5056112;28;45304;-71
2022/03/15 05:32:25;;;;;;;;;11.00;7.75;;;;;13.33;65.87;101727.78;5050882;28;45186;-70
2022/03/15 05:34:50;;;;;;;;;7.25;7.00;;;;;13.19;66.28;101704.94;5047475;28;45008;-71
2022/03/15 05:37:16;;;;;;;;;9.50;7.50;;;;;13.29;65.55;101731.19;5048881;28;45904;-70
2022/03/15 05:39:41;;;;;;;;;10.00;10.00;;;;;13.32;66.08;101727.72;5049808;28;45023;-70
2022/03/15 05:42:07;;;;;;;;;9.00;7.75;;;;;13.32;65.39;101730.41;5053090;28;45179;-71
2022/03/15 05:44:32;;;;;;;;;6.75;5.25;;;;;12.80;66.10;101639.38;5049811;28;45178;-70
2022/03/15 05:46:58;;;;;;;;;9.00;7.75;;;;;13.05;66.04;101674.97;5054025;28;45343;-71
2022/03/15 05:49:23;;;;;;;;;7.50;7.50;;;;;13.40;66.01;101734.25;5062040;27;45346;-71
2022/03/15 05:51:48;;;;;;;;;7.75;6.50;;;;;13.39;65.35;101729.75;5049286;28;45050;-70
2022/03/15 05:54:14;;;;;;;;;7.00;7.00;;;;;13.12;66.35;101719.94;5055466;28;45338;-70
2022/03/15 05:56:40;;;;;;;;;6.25;6.00;;;;;13.25;65.79;101731.97;5053083;28;46334;-71
2022/03/15 05:59:06;;;;;;;;;5.75;5.75;;;;;13.31;65.69;101742.88;5041042;28;45481;-70
2022/03/15 06:01:31;;;;;;;;;7.25;7.25;;;;;13.12;65.93;101713.69;5040005;28;45394;-71
2022/03/15 06:03:57;;;;;;;;;7.50;6.00;;;;;13.18;66.14;101730.88;5042686;28;45623;-72
2022/03/15 06:06:24;;;;;;;;;7.25;7.00;;;;;13.18;66.21;101740.69;5041023;28;45375;-72
2022/03/15 06:08:51;;;;;;;;;10.00;8.25;;;;;13.09;65.93;101711.78;5050169;28;45477;-71
2022/03/15 06:11:17;;;;;;;;;8.75;8.25;;;;;13.03;66.59;101701.78;5054728;28;45402;-71
2022/03/15 06:13:43;;;;;;;;;11.25;8.00;;;;;13.00;66.99;101708.81;5052422;28;45366;-70
2022/03/15 06:16:08;;;;;;;;;6.75;5.50;;;;;13.21;66.79;101743.47;5048363;28;45713;-71
2022/03/15 06:18:34;;;;;;;;;7.00;5.75;;;;;13.22;66.31;101746.19;5038517;28;45463;-70
2022/03/15 06:21:00;;;;;;;;;10.00;10.00;;;;;13.15;67.66;101749.56;5037805;28;45342;-70
2022/03/15 06:23:25;;;;;;;;;14.00;8.25;;;;;13.19;66.53;101750.56;5043684;28;45358;-71
2022/03/15 06:25:51;;;;;;;;;15.50;11.75;;;;;13.25;66.56;101743.63;5038726;28;46953;-71
2022/03/15 06:28:16;;;;;;;;;18.50;14.00;;;;;13.29;67.08;101747.28;5036494;28;45513;-70
2022/03/15 06:30:42;;;;;;;;;16.50;14.25;;;;;13.15;66.78;101727.16;5037046;28;45315;-71
2022/03/15 06:33:07;;;;;;;;;16.00;10.50;;;;;13.29;66.70;101733.88;5044907;28;45398;-70
2022/03/15 06:35:33;;;;;;;;;10.25;10.25;;;;;13.30;67.13;101751.81;5043755;28;45424;-71
2022/03/15 06:37:59;;;;;;;;;19.00;12.50;;;;;13.11;67.05;101706.47;5043816;28;45291;-71
2022/03/15 06:40:25;;;;;;;;;15.25;10.00;;;;;13.35;66.52;101742.16;5054634;28;45245;-71
2022/03/15 06:42:55;;;;;;;;;11.25;11.25;;;;;13.40;66.70;101743.22;5045140;28;45413;-70
2022/03/15 06:45:20;;;;;;;;;12.25;12.25;;;;;13.43;66.29;101742.41;5055563;28;46129;-72
2022/03/15 06:47:46;;;;;;;;;11.75;11.75;;;;;13.47;67.19;101752.38;5068985;28;45386;-71
2022/03/15 06:50:12;;;;;;;;;15.25;11.00;;;;;13.50;66.30;101748.88;5069286;28;45360;-71
2022/03/15 06:52:40;;;;;;;;;18.00;16.75;;;;;13.48;66.76;101747.91;5076506;28;45114;-70
2022/03/15 06:55:06;;;;;;;;;11.75;11.75;;;;;13.49;66.92;101747.03;5053158;28;45556;-72
2022/03/15 06:57:32;;;;;;;;;17.25;14.00;;;;;13.49;66.86;101741.69;5048396;28;45310;-71
2022/03/15 06:59:59;;;;;;;;;14.50;13.25;;;;;13.33;66.19;101733.16;5055933;28;45502;-71
2022/03/15 07:02:25;;;;;;;;;24.25;21.50;;;;;13.37;67.00;101732.38;5054056;28;45258;-71
2022/03/15 07:04:51;;;;;;;;;48.00;37.75;;;;;13.43;66.49;101734.34;5059103;28;46171;-70
2022/03/15 07:07:16;;;;;;;;;16.50;16.25;;;;;13.33;66.74;101705.38;5044686;28;45360;-71
2022/03/15 07:09:42;;;;;;;;;16.25;16.25;;;;;13.31;66.58;101705.31;5049648;28;45494;-72
2022/03/15 07:12:07;;;;;;;;;24.00;22.00;;;;;13.25;67.49;101702.47;5054119;28;45398;-72
2022/03/15 07:14:33;;;;;;;;;16.25;14.00;;;;;13.00;66.65;101649.78;5070509;28;45810;-72
2022/03/15 07:16:58;;;;;;;;;19.00;16.00;;;;;13.43;67.81;101737.03;5053234;27;45491;-72
2022/03/15 07:19:24;;;;;;;;;14.25;13.25;;;;;13.23;67.45;101715.81;5062913;27;44962;-71
2022/03/15 07:21:49;;;;;;;;;18.75;14.50;;;;;13.25;67.00;101713.19;5056939;28;45145;-71
2022/03/15 07:24:15;;;;;;;;;61.75;51.25;;;;;13.22;67.33;101716.69;5058961;27;45780;-72
2022/03/15 07:26:40;;;;;;;;;17.50;17.25;;;;;13.37;67.40;101751.16;5047936;28;45512;-74
2022/03/15 07:29:05;;;;;;;;;19.75;17.00;;;;;13.25;67.26;101729.28;5035405;28;45437;-71
2022/03/15 07:31:31;;;;;;;;;19.50;17.25;;;;;13.36;66.80;101743.97;5040753;28;45393;-72
2022/03/15 07:33:56;;;;;;;;;17.25;17.00;;;;;13.34;66.85;101737.66;5035537;28;45506;-72
2022/03/15 07:36:22;;;;;;;;;15.75;14.75;;;;;13.45;67.64;101752.31;5048876;28;45527;-72
2022/03/15 07:38:48;;;;;;;;;16.00;14.75;;;;;13.46;67.65;101753.22;5055023;28;45750;-71
2022/03/15 07:41:16;;;;;;;;;19.75;16.25;;;;;13.26;66.78;101725.72;5052171;28;45478;-72
2022/03/15 07:43:41;;;;;;;;;19.75;18.75;;;;;13.45;67.80;101746.94;5052579;28;46318;-72
2022/03/15 07:46:07;;;;;;;;;12.50;12.50;;;;;13.38;67.53;101736.91;5050991;28;45627;-72
2022/03/15 07:48:32;;;;;;;;;18.50;17.75;;;;;13.52;67.18;101729.25;5035636;28;45274;-71
2022/03/15 07:50:58;;;;;;;;;19.00;15.75;;;;;13.54;67.23;101731.97;5038925;28;45282;-72
2022/03/15 07:53:23;;;;;;;;;19.75;17.50;;;;;13.58;67.05;101731.22;5054794;28;45533;-72
2022/03/15 07:55:48;;;;;;;;;22.50;21.00;;;;;13.41;66.84;101699.41;5040612;28;46155;-71
2022/03/15 07:58:14;;;;;;;;;19.00;19.00;;;;;13.61;67.57;101724.16;5054517;28;45430;-72
2022/03/15 08:00:39;;;;;;;;;23.25;19.50;;;;;13.49;66.95;101693.34;5055183;28;45551;-72
2022/03/15 08:03:04;;;;;;;;;25.00;23.25;;;;;13.51;67.48;101705.03;5055953;28;45508;-71
2022/03/15 08:05:30;;;;;;;;;18.75;16.75;;;;;13.38;67.24;101704.69;5044879;27;45454;-71
2022/03/15 08:07:56;;;;;;;;;22.00;19.00;;;;;13.41;67.64;101698.47;5035181;28;45490;-70
2022/03/15 08:10:22;;;;;;;;;30.25;26.50;;;;;13.54;67.37;101723.94;5038638;28;45380;-71
2022/03/15 08:12:48;;;;;;;;;45.25;35.25;;;;;13.59;67.15;101735.72;5053325;28;46370;-71
2022/03/15 08:15:13;;;;;;;;;27.00;23.00;;;;;13.60;67.29;101737.53;5035914;28;45617;-71
2022/03/15 08:17:39;;;;;;;;;20.00;18.50;;;;;13.62;66.98;101725.97;5034709;28;45305;-71
2022/03/15 08:20:05;;;;;;;;;24.00;22.50;;;;;13.55;66.92;101715.91;5044258;28;45793;-73
2022/03/15 08:22:31;;;;;;;;;20.25;19.50;;;;;13.60;67.38;101721.44;5043591;28;46282;-71
2022/03/15 08:24:58;;;;;;;;;26.50;22.50;;;;;13.50;67.74;101700.56;5036378;28;45946;-72
2022/03/15 08:27:23;;;;;;;;;19.75;19.75;;;;;13.52;67.61;101705.09;5047911;28;45425;-72
2022/03/15 08:29:49;;;;;;;;;26.25;25.75;;;;;13.52;67.01;101691.66;5054815;28;45282;-72
2022/03/15 08:32:14;;;;;;;;;19.25;17.75;;;;;13.67;66.74;101715.38;5042759;28;45575;-71
2022/03/15 08:34:41;;;;;;;;;26.50;25.00;;;;;13.72;66.91;101716.41;5056057;28;45471;-72
2022/03/15 08:37:06;;;;;;;;;29.50;26.50;;;;;13.72;66.97;101712.81;5047851;27;45812;-68
2022/03/15 08:39:32;;;;;;;;;22.00;17.50;;;;;13.65;66.87;101711.72;5038892;28;45481;-69
2022/03/15 08:41:58;;;;;;;;;27.00;20.75;;;;;13.71;66.23;101724.41;5039109;28;46548;-70
2022/03/15 08:44:24;;;;;;;;;18.00;17.00;;;;;13.67;66.48;101712.69;5035103;28;45521;-70
2022/03/15 08:46:50;;;;;;;;;22.00;22.00;;;;;13.66;66.95;101721.63;5036251;28;45557;-69
2022/03/15 08:49:17;;;;;;;;;20.25;19.50;;;;;13.73;67.20;101738.81;5034391;28;45332;-69
2022/03/15 08:51:43;;;;;;;;;28.25;26.00;;;;;13.60;67.63;101705.31;5033592;28;47067;-69
2022/03/15 08:54:09;;;;;;;;;24.50;22.75;;;;;13.21;67.23;101636.13;5041927;28;46679;-71
2022/03/15 08:56:35;;;;;;;;;22.50;22.50;;;;;13.67;67.74;101711.78;5052260;28;45572;-70
2022/03/15 08:59:01;;;;;;;;;26.00;26.00;;;;;13.67;67.55;101718.06;5045423;28;45507;-70
2022/03/15 09:01:27;;;;;;;;;30.50;23.00;;;;;13.71;67.50;101729.78;5046579;28;47684;-69
2022/03/15 09:03:52;;;;;;;;;31.25;28.00;;;;;13.50;67.64;101677.28;5047888;28;45400;-70
2022/03/15 09:06:17;;;;;;;;;22.75;19.75;;;;;13.58;66.59;101685.59;5053219;28;46113;-70
2022/03/15 09:08:43;;;;;;;;;22.00;19.00;;;;;13.88;66.52;101732.97;5046778;28;45609;-69
2022/03/15 09:11:08;;;;;;;;;23.00;21.75;;;;;13.82;66.73;101742.66;5039064;28;47183;-70
2022/03/15 09:13:34;;;;;;;;;26.50;25.25;;;;;13.67;67.18;101711.78;5051886;28;45401;-70
2022/03/15 09:16:00;;;;;;;;;34.00;30.25;;;;;13.83;67.01;101735.53;5052772;28;45515;-68
2022/03/15 09:18:26;;;;;;;;;32.25;25.00;;;;;13.91;66.75;101742.03;5048127;28;45534;-69
2022/03/15 09:20:51;;;;;;;;;25.50;24.75;;;;;13.95;67.46;101745.72;5043588;28;46193;-69
2022/03/15 09:23:17;;;;;;;;;28.25;28.25;;;;;13.97;67.06;101755.66;5045363;28;45340;-69
2022/03/15 09:25:43;;;;;;;;;24.50;22.25;;;;;13.92;66.27;101745.63;5065924;28;45381;-69
2022/03/15 09:28:10;;;;;;;;;28.75;25.75;;;;;13.76;66.49;101722.78;5048092;28;45502;-70
2022/03/15 09:30:36;;;;;;;;;36.50;30.50;;;;;13.97;66.53;101746.66;5039419;28;46055;-69
2022/03/15 09:33:02;;;;;;;;;30.75;27.75;;;;;13.86;66.50;101735.63;5049652;28;45480;-70
2022/03/15 09:35:27;;;;;;;;;23.25;22.50;;;;;14.00;66.28;101742.28;5045793;28;45591;-69
2022/03/15 09:37:53;;;;;;;;;20.00;20.00;;;;;14.07;66.78;101746.03;5052363;28;45479;-70
2022/03/15 09:40:25;;;;;;;;;20.50;20.50;;;;;14.09;66.47;101728.22;5066179;28;47515;-70
2022/03/15 09:42:57;;;;;;;;;23.75;18.75;;;;;13.90;66.33;101691.84;5048101;28;45726;-69
2022/03/15 09:45:23;;;;;;;;;30.00;22.50;;;;;14.08;66.89;101720.09;5063329;28;45710;-71
2022/03/15 09:47:54;;;;;;;;;35.50;29.00;;;;;14.19;66.47;101721.31;5051214;28;45401;-71
2022/03/15 09:50:20;;;;;;;;;34.00;30.50;;;;;14.26;66.90;101728.66;5048942;28;46063;-70
2022/03/15 09:52:47;;;;;;;;;27.75;21.75;;;;;14.09;66.30;101689.66;5040405;28;45512;-70
2022/03/15 09:55:12;;;;;;;;;22.25;20.75;;;;;14.11;66.13;101694.22;5044594;28;45392;-72
2022/03/15 09:57:39;;;;;;;;;29.50;26.00;;;;;14.25;66.69;101717.88;5052805;28;45512;-70
2022/03/15 10:00:05;;;;;;;;;20.50;20.00;;;;;14.05;66.81;101677.94;5050568;28;45530;-70
2022/03/15 10:02:32;;;;;;;;;23.75;21.25;;;;;14.21;66.66;101707.91;5043622;28;45705;-69
2022/03/15 10:04:57;;;;;;;;;25.25;23.25;;;;;14.05;66.95;101694.03;5052640;28;45460;-69
2022/03/15 10:07:23;;;;;;;;;27.75;25.75;;;;;14.03;66.90;101695.78;5052514;28;45584;-70
2022/03/15 10:09:48;;;;;;;;;29.25;28.50;;;;;14.19;66.90;101714.16;5048759;28;45586;-69
2022/03/15 10:12:14;;;;;;;;;28.50;24.50;;;;;14.19;67.31;101716.84;5035092;28;45537;-71
2022/03/15 10:14:45;;;;;;;;;31.00;28.00;;;;;14.20;66.71;101717.75;5051327;28;45497;-71
2022/03/15 10:17:12;;;;;;;;;41.00;33.25;;;;;14.07;66.89;101704.84;5049931;28;45630;-69
2022/03/15 10:19:38;;;;;;;;;21.75;21.75;;;;;13.86;66.52;101671.16;5050658;28;45544;-69
2022/03/15 10:22:08;;;;;;;;;25.50;25.25;;;;;14.05;67.40;101699.41;5038631;28;45432;-70
2022/03/15 10:24:38;;;;;;;;;25.75;24.75;;;;;14.09;66.60;101706.72;5045077;28;45528;-72
2022/03/15 10:27:06;;;;;;;;;23.25;22.00;;;;;13.84;66.49;101667.50;5049550;28;45456;-70
2022/03/15 10:29:33;;;;;;;;;25.75;23.25;;;;;14.11;66.47;101701.38;5046940;28;47231;-71
2022/03/15 10:31:59;;;;;;;;;23.75;21.25;;;;;14.13;66.98;101700.53;5042425;28;45517;-70
2022/03/15 10:34:26;;;;;;;;;30.75;28.25;;;;;13.62;66.79;101606.91;5045933;28;45620;-71
2022/03/15 10:36:54;;;;;;;;;28.25;22.25;;;;;13.92;66.45;101665.94;5051888;28;45410;-70
2022/03/15 10:39:20;;;;;;;;;22.75;21.25;;;;;13.96;66.72;101672.31;5049715;28;46374;-71
2022/03/15 10:41:59;;;;;;;;;43.00;34.25;;;;;14.21;66.45;101698.06;5041646;28;46024;-70
2022/03/15 10:44:25;;;;;;;;;26.75;23.50;;;;;14.21;66.49;101698.06;5046237;28;45487;-69
2022/03/15 10:47:12;;;;;;;;;32.50;26.50;;;;;14.04;66.14;101670.75;5054988;28;45473;-71
2022/03/15 10:49:45;;;;;;;;;28.00;25.00;;;;;14.25;65.90;101699.06;5053844;28;46291;-70
2022/03/15 10:52:11;;;;;;;;;28.00;27.25;;;;;14.17;66.25;101691.72;5043267;28;45492;-69
2022/03/15 10:54:37;;;;;;;;;27.50;25.75;;;;;14.28;65.74;101691.06;5049806;28;45545;-71
2022/03/15 10:57:03;;;;;;;;;26.75;25.50;;;;;14.09;66.04;101652.03;5055211;28;45684;-70
2022/03/15 10:59:28;;;;;;;;;28.25;25.25;;;;;14.01;65.88;101646.47;5054227;28;46050;-70
2022/03/15 11:01:54;;;;;;;;;35.00;31.50;;;;;14.21;66.19;101706.13;5059229;28;45624;-70
2022/03/15 11:04:21;;;;;;;;;22.00;22.00;;;;;14.05;66.05;101671.66;5052426;28;45475;-72
2022/03/15 11:06:48;;;;;;;;;25.50;23.75;;;;;14.22;66.43;101693.59;5054238;28;45390;-71
2022/03/15 11:09:27;;;;;;;;;26.00;22.75;;;;;14.23;66.40;101693.63;5044765;28;46288;-71
2022/03/15 11:11:54;;;;;;;;;39.00;33.25;;;;;14.26;66.55;101685.66;5040161;28;45550;-72
2022/03/15 11:14:46;;;;;;;;;47.25;38.00;;;;;14.27;66.49;101673.13;5048990;28;45465;-69